sensor_id;sensor_type;location;lat;lon;timestamp;P1;durP1;ratioP1;P2;durP2;ratioP2
77748;SDS011;66938;52.084;5.228;2024-01-06T00:00:18;13.4;;;12.1;;
77748;SDS011;66938;52.084;5.228;2024-01-06T00:01:54;14.0;;;12.6;;
77748;SDS011;66938;52.084;5.228;2024-01-06T00:03:30;14.4;;;12.9;;
77748;SDS011;66938;52.084;5.228;2024-01-06T00:06:43;13.5;;;12.1;;
77748;SDS011;66938;52.084;5.228;2024-01-06T00:08:20;14.7;;;13.2;;
77748;SDS011;66938;52.084;5.228;2024-01-06T00:09:56;14.0;;;12.6;;
77748;SDS011;66938;52.084;5.228;2024-01-06T00:13:08;14.0;;;12.6;;
77748;SDS011;66938;52.084;5.228;2024-01-06T00:14:45;13.3;;;12.0;;
77748;SDS011;66938;52.084;5.228;2024-01-06T00:16:21;12.7;;;11.4;;
77748;SDS011;66938;52.084;5.228;2024-01-06T00:19:37;12.2;;;10.9;;
77748;SDS011;66938;52.084;5.228;2024-01-06T00:21:13;11.4;;;10.3;;
77748;SDS011;66938;52.084;5.228;2024-01-06T00:22:49;11.5;;;10.4;;
77748;SDS011;66938;52.084;5.228;2024-01-06T00:24:25;11.5;;;10.4;;
77748;SDS011;66938;52.084;5.228;2024-01-06T00:27:37;10.21;;;9.21;;
77748;SDS011;66938;52.084;5.228;2024-01-06T00:29:13;10.5;;;9.5;;
77748;SDS011;66938;52.084;5.228;2024-01-06T00:30:49;11.3;;;10.21;;
77748;SDS011;66938;52.084;5.228;2024-01-06T00:34:02;9.9;;;8.9;;
77748;SDS011;66938;52.084;5.228;2024-01-06T00:35:38;10.21;;;9.21;;
77748;SDS011;66938;52.084;5.228;2024-01-06T00:37:14;10.1;;;9.1;;
77748;SDS011;66938;52.084;5.228;2024-01-06T00:40:26;10.3;;;9.31;;
77748;SDS011;66938;52.084;5.228;2024-01-06T00:42:05;10.6;;;9.6;;
77748;SDS011;66938;52.084;5.228;2024-01-06T00:43:42;9.6;;;8.6;;
77748;SDS011;66938;52.084;5.228;2024-01-06T00:45:18;9.9;;;8.9;;
77748;SDS011;66938;52.084;5.228;2024-01-06T00:48:30;9.4;;;8.4;;
77748;SDS011;66938;52.084;5.228;2024-01-06T00:50:07;8.81;;;8.0;;
77748;SDS011;66938;52.084;5.228;2024-01-06T00:51:44;8.4;;;7.5;;
77748;SDS011;66938;52.084;5.228;2024-01-06T00:54:57;8.5;;;7.7;;
77748;SDS011;66938;52.084;5.228;2024-01-06T00:56:33;8.9;;;8.0;;
77748;SDS011;66938;52.084;5.228;2024-01-06T00:58:09;7.4;;;6.7;;
77748;SDS011;66938;52.084;5.228;2024-01-06T01:01:21;6.2;;;5.6;;
77748;SDS011;66938;52.084;5.228;2024-01-06T01:02:57;6.5;;;5.8;;
77748;SDS011;66938;52.084;5.228;2024-01-06T01:04:33;7.3;;;6.6;;
77748;SDS011;66938;52.084;5.228;2024-01-06T01:07:45;6.9;;;6.2;;
77748;SDS011;66938;52.084;5.228;2024-01-06T01:09:22;7.5;;;6.8;;
77748;SDS011;66938;52.084;5.228;2024-01-06T01:10:58;6.8;;;6.1;;
77748;SDS011;66938;52.084;5.228;2024-01-06T01:12:34;6.4;;;5.8;;
77748;SDS011;66938;52.084;5.228;2024-01-06T01:15:46;5.4;;;4.91;;
77748;SDS011;66938;52.084;5.228;2024-01-06T01:17:22;5.4;;;3.7;;
77748;SDS011;66938;52.084;5.228;2024-01-06T01:18:58;4.3;;;3.9;;
77748;SDS011;66938;52.084;5.228;2024-01-06T01:22:10;4.41;;;3.7;;
77748;SDS011;66938;52.084;5.228;2024-01-06T01:23:46;4.8;;;4.3;;
77748;SDS011;66938;52.084;5.228;2024-01-06T01:25:22;5.3;;;4.61;;
77748;SDS011;66938;52.084;5.228;2024-01-06T01:28:35;4.7;;;4.1;;
77748;SDS011;66938;52.084;5.228;2024-01-06T01:30:11;4.2;;;3.8;;
77748;SDS011;66938;52.084;5.228;2024-01-06T01:31:47;4.91;;;4.0;;
77748;SDS011;66938;52.084;5.228;2024-01-06T01:35:00;5.11;;;4.61;;
77748;SDS011;66938;52.084;5.228;2024-01-06T01:36:36;5.0;;;4.5;;
77748;SDS011;66938;52.084;5.228;2024-01-06T01:38:12;5.6;;;4.91;;
77748;SDS011;66938;52.084;5.228;2024-01-06T01:39:48;5.11;;;4.0;;
77748;SDS011;66938;52.084;5.228;2024-01-06T01:43:01;4.2;;;3.6;;
77748;SDS011;66938;52.084;5.228;2024-01-06T01:44:37;5.11;;;4.0;;
77748;SDS011;66938;52.084;5.228;2024-01-06T01:46:13;5.7;;;4.7;;
77748;SDS011;66938;52.084;5.228;2024-01-06T01:49:26;5.3;;;4.8;;
77748;SDS011;66938;52.084;5.228;2024-01-06T01:51:02;4.8;;;4.41;;
77748;SDS011;66938;52.084;5.228;2024-01-06T01:52:39;6.2;;;5.6;;
77748;SDS011;66938;52.084;5.228;2024-01-06T01:55:53;7.1;;;6.4;;
77748;SDS011;66938;52.084;5.228;2024-01-06T01:57:29;6.9;;;6.2;;
77748;SDS011;66938;52.084;5.228;2024-01-06T01:59:11;6.4;;;5.8;;
77748;SDS011;66938;52.084;5.228;2024-01-06T02:00:48;6.6;;;6.0;;
77748;SDS011;66938;52.084;5.228;2024-01-06T02:04:01;6.6;;;6.0;;
77748;SDS011;66938;52.084;5.228;2024-01-06T02:05:37;8.1;;;7.3;;
77748;SDS011;66938;52.084;5.228;2024-01-06T02:07:13;7.1;;;6.4;;
77748;SDS011;66938;52.084;5.228;2024-01-06T02:10:25;6.5;;;5.4;;
77748;SDS011;66938;52.084;5.228;2024-01-06T02:12:05;6.2;;;5.6;;
77748;SDS011;66938;52.084;5.228;2024-01-06T02:13:41;6.2;;;5.6;;
77748;SDS011;66938;52.084;5.228;2024-01-06T02:15:17;5.9;;;4.7;;
77748;SDS011;66938;52.084;5.228;2024-01-06T02:18:31;4.7;;;4.3;;
77748;SDS011;66938;52.084;5.228;2024-01-06T02:20:08;6.6;;;5.9;;
77748;SDS011;66938;52.084;5.228;2024-01-06T02:21:48;5.2;;;4.7;;
77748;SDS011;66938;52.084;5.228;2024-01-06T02:25:00;4.7;;;4.0;;
77748;SDS011;66938;52.084;5.228;2024-01-06T02:26:36;4.8;;;4.0;;
77748;SDS011;66938;52.084;5.228;2024-01-06T02:28:12;5.6;;;4.61;;
77748;SDS011;66938;52.084;5.228;2024-01-06T02:31:24;4.7;;;4.1;;
77748;SDS011;66938;52.084;5.228;2024-01-06T02:33:00;4.41;;;4.0;;
77748;SDS011;66938;52.084;5.228;2024-01-06T02:34:36;4.91;;;4.41;;
77748;SDS011;66938;52.084;5.228;2024-01-06T02:36:13;4.8;;;4.0;;
77748;SDS011;66938;52.084;5.228;2024-01-06T02:39:25;5.5;;;4.41;;
77748;SDS011;66938;52.084;5.228;2024-01-06T02:41:01;4.8;;;4.3;;
77748;SDS011;66938;52.084;5.228;2024-01-06T02:42:37;4.8;;;4.3;;
77748;SDS011;66938;52.084;5.228;2024-01-06T02:45:49;6.0;;;4.91;;
77748;SDS011;66938;52.084;5.228;2024-01-06T02:47:25;7.0;;;4.7;;
77748;SDS011;66938;52.084;5.228;2024-01-06T02:49:01;5.11;;;4.61;;
77748;SDS011;66938;52.084;5.228;2024-01-06T02:52:13;5.8;;;5.11;;
77748;SDS011;66938;52.084;5.228;2024-01-06T02:53:50;4.91;;;4.3;;
77748;SDS011;66938;52.084;5.228;2024-01-06T02:55:26;5.4;;;4.91;;
77748;SDS011;66938;52.084;5.228;2024-01-06T02:58:38;5.2;;;4.7;;
77748;SDS011;66938;52.084;5.228;2024-01-06T03:00:14;5.7;;;4.91;;
77748;SDS011;66938;52.084;5.228;2024-01-06T03:01:51;5.3;;;4.3;;
77748;SDS011;66938;52.084;5.228;2024-01-06T03:03:27;5.8;;;4.2;;
77748;SDS011;66938;52.084;5.228;2024-01-06T03:06:40;4.91;;;4.5;;
77748;SDS011;66938;52.084;5.228;2024-01-06T03:08:20;6.1;;;4.7;;
77748;SDS011;66938;52.084;5.228;2024-01-06T03:09:55;5.5;;;4.91;;
77748;SDS011;66938;52.084;5.228;2024-01-06T03:13:08;5.7;;;5.11;;
77748;SDS011;66938;52.084;5.228;2024-01-06T03:14:44;6.2;;;5.6;;
77748;SDS011;66938;52.084;5.228;2024-01-06T03:16:20;5.9;;;5.11;;
77748;SDS011;66938;52.084;5.228;2024-01-06T03:19:32;5.4;;;4.41;;
77748;SDS011;66938;52.084;5.228;2024-01-06T03:21:16;6.9;;;5.2;;
77748;SDS011;66938;52.084;5.228;2024-01-06T03:22:52;6.9;;;5.2;;
77748;SDS011;66938;52.084;5.228;2024-01-06T03:24:28;6.9;;;5.6;;
77748;SDS011;66938;52.084;5.228;2024-01-06T03:27:41;6.6;;;5.3;;
77748;SDS011;66938;52.084;5.228;2024-01-06T03:29:18;6.5;;;5.2;;
77748;SDS011;66938;52.084;5.228;2024-01-06T03:30:54;6.2;;;5.4;;
77748;SDS011;66938;52.084;5.228;2024-01-06T03:34:05;5.6;;;4.91;;
77748;SDS011;66938;52.084;5.228;2024-01-06T03:35:41;6.6;;;4.7;;
77748;SDS011;66938;52.084;5.228;2024-01-06T03:37:17;5.6;;;5.11;;
77748;SDS011;66938;52.084;5.228;2024-01-06T03:40:29;6.1;;;5.0;;
77748;SDS011;66938;52.084;5.228;2024-01-06T03:42:06;7.2;;;5.8;;
77748;SDS011;66938;52.084;5.228;2024-01-06T03:43:42;7.0;;;5.8;;
77748;SDS011;66938;52.084;5.228;2024-01-06T03:45:18;7.0;;;5.6;;
77748;SDS011;66938;52.084;5.228;2024-01-06T03:48:30;7.4;;;5.6;;
77748;SDS011;66938;52.084;5.228;2024-01-06T03:50:06;7.5;;;5.8;;
77748;SDS011;66938;52.084;5.228;2024-01-06T03:51:43;6.5;;;5.7;;
77748;SDS011;66938;52.084;5.228;2024-01-06T03:54:58;6.3;;;5.7;;
77748;SDS011;66938;52.084;5.228;2024-01-06T03:56:34;7.0;;;6.3;;
77748;SDS011;66938;52.084;5.228;2024-01-06T03:58:10;7.6;;;6.3;;
77748;SDS011;66938;52.084;5.228;2024-01-06T04:01:23;7.5;;;6.2;;
77748;SDS011;66938;52.084;5.228;2024-01-06T04:02:59;6.6;;;5.9;;
77748;SDS011;66938;52.084;5.228;2024-01-06T04:04:35;8.0;;;6.4;;
77748;SDS011;66938;52.084;5.228;2024-01-06T04:06:11;6.8;;;6.1;;
77748;SDS011;66938;52.084;5.228;2024-01-06T04:09:23;7.6;;;5.8;;
77748;SDS011;66938;52.084;5.228;2024-01-06T04:10:59;7.8;;;6.8;;
77748;SDS011;66938;52.084;5.228;2024-01-06T04:12:35;6.7;;;5.8;;
77748;SDS011;66938;52.084;5.228;2024-01-06T04:15:47;6.7;;;5.7;;
77748;SDS011;66938;52.084;5.228;2024-01-06T04:17:24;7.3;;;6.5;;
77748;SDS011;66938;52.084;5.228;2024-01-06T04:19:00;7.5;;;6.7;;
77748;SDS011;66938;52.084;5.228;2024-01-06T04:22:12;5.9;;;5.3;;
77748;SDS011;66938;52.084;5.228;2024-01-06T04:23:48;6.6;;;6.0;;
77748;SDS011;66938;52.084;5.228;2024-01-06T04:25:24;6.2;;;5.6;;
77748;SDS011;66938;52.084;5.228;2024-01-06T04:28:36;6.2;;;5.6;;
77748;SDS011;66938;52.084;5.228;2024-01-06T04:30:13;7.0;;;5.8;;
77748;SDS011;66938;52.084;5.228;2024-01-06T04:31:48;6.6;;;5.9;;
77748;SDS011;66938;52.084;5.228;2024-01-06T04:33:24;6.8;;;5.8;;
77748;SDS011;66938;52.084;5.228;2024-01-06T04:36:37;7.4;;;6.3;;
77748;SDS011;66938;52.084;5.228;2024-01-06T04:38:13;7.1;;;6.3;;
77748;SDS011;66938;52.084;5.228;2024-01-06T04:39:49;7.2;;;6.5;;
77748;SDS011;66938;52.084;5.228;2024-01-06T04:43:01;7.2;;;6.5;;
77748;SDS011;66938;52.084;5.228;2024-01-06T04:44:37;7.1;;;6.4;;
77748;SDS011;66938;52.084;5.228;2024-01-06T04:46:13;7.1;;;6.4;;
77748;SDS011;66938;52.084;5.228;2024-01-06T04:49:25;7.8;;;7.0;;
77748;SDS011;66938;52.084;5.228;2024-01-06T04:51:02;7.5;;;6.7;;
77748;SDS011;66938;52.084;5.228;2024-01-06T04:52:38;8.9;;;7.5;;
77748;SDS011;66938;52.084;5.228;2024-01-06T04:54:14;9.71;;;7.5;;
77748;SDS011;66938;52.084;5.228;2024-01-06T04:57:26;8.81;;;7.9;;
77748;SDS011;66938;52.084;5.228;2024-01-06T04:59:02;8.5;;;7.7;;
77748;SDS011;66938;52.084;5.228;2024-01-06T05:00:38;8.31;;;7.5;;
77748;SDS011;66938;52.084;5.228;2024-01-06T05:03:50;9.81;;;8.71;;
77748;SDS011;66938;52.084;5.228;2024-01-06T05:05:26;10.7;;;8.81;;
77748;SDS011;66938;52.084;5.228;2024-01-06T05:07:03;10.21;;;9.21;;
77748;SDS011;66938;52.084;5.228;2024-01-06T05:10:16;10.1;;;9.0;;
77748;SDS011;66938;52.084;5.228;2024-01-06T05:13:28;11.8;;;10.6;;
77748;SDS011;66938;52.084;5.228;2024-01-06T05:16:41;11.4;;;9.4;;
77748;SDS011;66938;52.084;5.228;2024-01-06T05:18:17;10.7;;;9.6;;
77748;SDS011;66938;52.084;5.228;2024-01-06T05:19:54;13.7;;;10.0;;
77748;SDS011;66938;52.084;5.228;2024-01-06T05:21:30;10.7;;;9.6;;
77748;SDS011;66938;52.084;5.228;2024-01-06T05:24:45;10.6;;;9.5;;
77748;SDS011;66938;52.084;5.228;2024-01-06T05:26:22;12.3;;;11.0;;
77748;SDS011;66938;52.084;5.228;2024-01-06T05:27:58;11.3;;;10.21;;
77748;SDS011;66938;52.084;5.228;2024-01-06T05:31:10;11.8;;;10.0;;
77748;SDS011;66938;52.084;5.228;2024-01-06T05:32:46;11.7;;;10.5;;
77748;SDS011;66938;52.084;5.228;2024-01-06T05:34:22;11.2;;;10.0;;
77748;SDS011;66938;52.084;5.228;2024-01-06T05:37:34;11.9;;;10.7;;
77748;SDS011;66938;52.084;5.228;2024-01-06T05:39:10;11.6;;;10.4;;
77748;SDS011;66938;52.084;5.228;2024-01-06T05:40:46;11.3;;;10.1;;
77748;SDS011;66938;52.084;5.228;2024-01-06T05:42:23;11.0;;;9.81;;
77748;SDS011;66938;52.084;5.228;2024-01-06T05:45:35;10.9;;;9.81;;
77748;SDS011;66938;52.084;5.228;2024-01-06T05:47:11;11.8;;;9.5;;
77748;SDS011;66938;52.084;5.228;2024-01-06T05:48:47;10.21;;;9.1;;
77748;SDS011;66938;52.084;5.228;2024-01-06T05:51:59;11.0;;;9.6;;
77748;SDS011;66938;52.084;5.228;2024-01-06T05:53:35;11.7;;;9.1;;
77748;SDS011;66938;52.084;5.228;2024-01-06T05:55:11;9.9;;;8.71;;
77748;SDS011;66938;52.084;5.228;2024-01-06T05:58:26;9.21;;;8.2;;
77748;SDS011;66938;52.084;5.228;2024-01-06T06:00:03;10.5;;;8.31;;
77748;SDS011;66938;52.084;5.228;2024-01-06T06:01:43;9.6;;;8.4;;
77748;SDS011;66938;52.084;5.228;2024-01-06T06:03:19;10.1;;;8.9;;
77748;SDS011;66938;52.084;5.228;2024-01-06T06:06:31;10.7;;;9.4;;
77748;SDS011;66938;52.084;5.228;2024-01-06T06:08:07;10.4;;;8.4;;
77748;SDS011;66938;52.084;5.228;2024-01-06T06:09:43;11.2;;;9.71;;
77748;SDS011;66938;52.084;5.228;2024-01-06T06:12:55;11.1;;;9.6;;
77748;SDS011;66938;52.084;5.228;2024-01-06T06:14:31;10.21;;;9.21;;
77748;SDS011;66938;52.084;5.228;2024-01-06T06:16:09;12.4;;;10.21;;
77748;SDS011;66938;52.084;5.228;2024-01-06T06:19:25;11.6;;;10.1;;
77748;SDS011;66938;52.084;5.228;2024-01-06T06:21:01;11.9;;;10.3;;
77748;SDS011;66938;52.084;5.228;2024-01-06T06:22:37;11.7;;;10.21;;
77748;SDS011;66938;52.084;5.228;2024-01-06T06:24:13;12.5;;;11.0;;
77748;SDS011;66938;52.084;5.228;2024-01-06T06:27:26;11.9;;;10.7;;
77748;SDS011;66938;52.084;5.228;2024-01-06T06:29:02;12.7;;;10.8;;
77748;SDS011;66938;52.084;5.228;2024-01-06T06:30:38;12.7;;;10.3;;
77748;SDS011;66938;52.084;5.228;2024-01-06T06:33:51;12.6;;;11.2;;
77748;SDS011;66938;52.084;5.228;2024-01-06T06:35:27;12.8;;;10.9;;
77748;SDS011;66938;52.084;5.228;2024-01-06T06:37:03;12.5;;;10.8;;
77748;SDS011;66938;52.084;5.228;2024-01-06T06:40:15;12.7;;;10.8;;
77748;SDS011;66938;52.084;5.228;2024-01-06T06:41:51;11.0;;;9.9;;
77748;SDS011;66938;52.084;5.228;2024-01-06T06:43:27;11.0;;;9.9;;
77748;SDS011;66938;52.084;5.228;2024-01-06T06:46:41;10.21;;;9.1;;
77748;SDS011;66938;52.084;5.228;2024-01-06T06:48:18;11.8;;;9.71;;
77748;SDS011;66938;52.084;5.228;2024-01-06T06:49:53;9.9;;;8.9;;
77748;SDS011;66938;52.084;5.228;2024-01-06T06:51:30;11.3;;;9.5;;
77748;SDS011;66938;52.084;5.228;2024-01-06T06:54:43;11.7;;;9.31;;
77748;SDS011;66938;52.084;5.228;2024-01-06T06:56:19;9.9;;;8.71;;
77748;SDS011;66938;52.084;5.228;2024-01-06T06:57:55;11.6;;;9.81;;
77748;SDS011;66938;52.084;5.228;2024-01-06T07:01:07;12.7;;;9.9;;
77748;SDS011;66938;52.084;5.228;2024-01-06T07:02:44;10.3;;;8.4;;
77748;SDS011;66938;52.084;5.228;2024-01-06T07:04:20;9.81;;;8.81;;
77748;SDS011;66938;52.084;5.228;2024-01-06T07:07:32;9.9;;;7.8;;
77748;SDS011;66938;52.084;5.228;2024-01-06T07:09:09;9.1;;;7.9;;
77748;SDS011;66938;52.084;5.228;2024-01-06T07:10:45;8.81;;;7.8;;
77748;SDS011;66938;52.084;5.228;2024-01-06T07:12:21;8.1;;;7.3;;
77748;SDS011;66938;52.084;5.228;2024-01-06T07:15:33;9.4;;;7.4;;
77748;SDS011;66938;52.084;5.228;2024-01-06T07:17:09;9.21;;;7.7;;
77748;SDS011;66938;52.084;5.228;2024-01-06T07:18:45;8.71;;;7.8;;
77748;SDS011;66938;52.084;5.228;2024-01-06T07:21:57;8.0;;;7.0;;
77748;SDS011;66938;52.084;5.228;2024-01-06T07:23:34;7.9;;;7.1;;
77748;SDS011;66938;52.084;5.228;2024-01-06T07:25:10;8.1;;;7.2;;
77748;SDS011;66938;52.084;5.228;2024-01-06T07:28:23;9.0;;;7.3;;
77748;SDS011;66938;52.084;5.228;2024-01-06T07:29:59;8.71;;;7.7;;
77748;SDS011;66938;52.084;5.228;2024-01-06T07:31:35;7.4;;;6.6;;
77748;SDS011;66938;52.084;5.228;2024-01-06T07:33:11;8.71;;;7.0;;
77748;SDS011;66938;52.084;5.228;2024-01-06T07:36:24;9.31;;;7.6;;
77748;SDS011;66938;52.084;5.228;2024-01-06T07:38:00;9.6;;;7.5;;
77748;SDS011;66938;52.084;5.228;2024-01-06T07:39:36;8.71;;;7.2;;
77748;SDS011;66938;52.084;5.228;2024-01-06T07:42:49;7.7;;;6.8;;
77748;SDS011;66938;52.084;5.228;2024-01-06T07:44:25;7.6;;;6.8;;
77748;SDS011;66938;52.084;5.228;2024-01-06T07:46:01;8.71;;;7.1;;
77748;SDS011;66938;52.084;5.228;2024-01-06T07:49:13;7.7;;;6.9;;
77748;SDS011;66938;52.084;5.228;2024-01-06T07:50:49;7.4;;;6.5;;
77748;SDS011;66938;52.084;5.228;2024-01-06T07:52:25;7.9;;;6.5;;
77748;SDS011;66938;52.084;5.228;2024-01-06T07:55:38;8.2;;;6.7;;
77748;SDS011;66938;52.084;5.228;2024-01-06T07:57:14;7.8;;;7.0;;
77748;SDS011;66938;52.084;5.228;2024-01-06T07:58:50;7.9;;;6.6;;
77748;SDS011;66938;52.084;5.228;2024-01-06T08:00:26;7.7;;;6.7;;
77748;SDS011;66938;52.084;5.228;2024-01-06T08:03:38;7.9;;;7.1;;
77748;SDS011;66938;52.084;5.228;2024-01-06T08:05:14;8.4;;;7.2;;
77748;SDS011;66938;52.084;5.228;2024-01-06T08:06:50;8.9;;;8.0;;
77748;SDS011;66938;52.084;5.228;2024-01-06T08:10:03;8.9;;;6.9;;
77748;SDS011;66938;52.084;5.228;2024-01-06T08:11:40;9.4;;;7.0;;
77748;SDS011;66938;52.084;5.228;2024-01-06T08:13:16;8.71;;;7.1;;
77748;SDS011;66938;52.084;5.228;2024-01-06T08:16:28;8.6;;;7.2;;
77748;SDS011;66938;52.084;5.228;2024-01-06T08:18:04;7.9;;;6.8;;
77748;SDS011;66938;52.084;5.228;2024-01-06T08:19:40;9.9;;;7.6;;
77748;SDS011;66938;52.084;5.228;2024-01-06T08:22:55;9.1;;;7.4;;
77748;SDS011;66938;52.084;5.228;2024-01-06T08:24:31;8.5;;;7.6;;
77748;SDS011;66938;52.084;5.228;2024-01-06T08:26:07;9.9;;;7.8;;
77748;SDS011;66938;52.084;5.228;2024-01-06T08:27:44;8.9;;;8.0;;
77748;SDS011;66938;52.084;5.228;2024-01-06T08:30:55;10.1;;;8.31;;
77748;SDS011;66938;52.084;5.228;2024-01-06T08:32:31;12.2;;;9.0;;
77748;SDS011;66938;52.084;5.228;2024-01-06T08:34:07;10.0;;;8.31;;
77748;SDS011;66938;52.084;5.228;2024-01-06T08:37:19;10.6;;;8.71;;
77748;SDS011;66938;52.084;5.228;2024-01-06T08:38:55;11.7;;;9.4;;
77748;SDS011;66938;52.084;5.228;2024-01-06T08:40:31;10.7;;;9.71;;
77748;SDS011;66938;52.084;5.228;2024-01-06T08:43:43;12.5;;;9.5;;
77748;SDS011;66938;52.084;5.228;2024-01-06T08:45:20;11.0;;;9.6;;
77748;SDS011;66938;52.084;5.228;2024-01-06T08:46:56;10.6;;;9.31;;
77748;SDS011;66938;52.084;5.228;2024-01-06T08:48:32;11.6;;;9.71;;
77748;SDS011;66938;52.084;5.228;2024-01-06T08:51:44;12.8;;;10.3;;
77748;SDS011;66938;52.084;5.228;2024-01-06T08:53:20;10.7;;;9.21;;
77748;SDS011;66938;52.084;5.228;2024-01-06T08:54:56;11.5;;;9.4;;
77748;SDS011;66938;52.084;5.228;2024-01-06T08:58:09;11.5;;;9.21;;
77748;SDS011;66938;52.084;5.228;2024-01-06T08:59:45;11.6;;;9.4;;
77748;SDS011;66938;52.084;5.228;2024-01-06T09:01:22;12.2;;;9.71;;
77748;SDS011;66938;52.084;5.228;2024-01-06T09:04:34;13.0;;;10.0;;
77748;SDS011;66938;52.084;5.228;2024-01-06T09:06:10;9.81;;;8.81;;
77748;SDS011;66938;52.084;5.228;2024-01-06T09:07:46;11.7;;;9.4;;
77748;SDS011;66938;52.084;5.228;2024-01-06T09:10:58;12.1;;;9.31;;
77748;SDS011;66938;52.084;5.228;2024-01-06T09:12:34;10.4;;;8.71;;
77748;SDS011;66938;52.084;5.228;2024-01-06T09:14:10;10.21;;;8.71;;
77748;SDS011;66938;52.084;5.228;2024-01-06T09:15:46;11.1;;;9.4;;
77748;SDS011;66938;52.084;5.228;2024-01-06T09:18:59;11.1;;;9.31;;
77748;SDS011;66938;52.084;5.228;2024-01-06T09:20:35;10.21;;;8.9;;
77748;SDS011;66938;52.084;5.228;2024-01-06T09:22:11;10.4;;;8.71;;
77748;SDS011;66938;52.084;5.228;2024-01-06T09:25:23;9.9;;;8.2;;
77748;SDS011;66938;52.084;5.228;2024-01-06T09:26:59;10.7;;;8.4;;
77748;SDS011;66938;52.084;5.228;2024-01-06T09:28:35;9.6;;;7.6;;
77748;SDS011;66938;52.084;5.228;2024-01-06T09:31:52;12.0;;;8.2;;
77748;SDS011;66938;52.084;5.228;2024-01-06T09:33:29;8.6;;;7.2;;
77748;SDS011;66938;52.084;5.228;2024-01-06T09:35:05;13.1;;;8.31;;
77748;SDS011;66938;52.084;5.228;2024-01-06T09:36:42;10.5;;;7.9;;
77748;SDS011;66938;52.084;5.228;2024-01-06T09:39:54;7.5;;;6.7;;
77748;SDS011;66938;52.084;5.228;2024-01-06T09:41:30;7.9;;;6.5;;
77748;SDS011;66938;52.084;5.228;2024-01-06T09:43:06;9.71;;;7.5;;
77748;SDS011;66938;52.084;5.228;2024-01-06T09:46:21;11.2;;;7.2;;
77748;SDS011;66938;52.084;5.228;2024-01-06T09:48:01;9.4;;;6.9;;
77748;SDS011;66938;52.084;5.228;2024-01-06T09:49:48;9.1;;;7.0;;
77748;SDS011;66938;52.084;5.228;2024-01-06T09:51:26;8.4;;;6.2;;
77748;SDS011;66938;52.084;5.228;2024-01-06T09:54:40;7.3;;;5.8;;
77748;SDS011;66938;52.084;5.228;2024-01-06T09:56:22;7.8;;;6.1;;
77748;SDS011;66938;52.084;5.228;2024-01-06T09:58:00;6.6;;;5.7;;
77748;SDS011;66938;52.084;5.228;2024-01-06T09:59:38;7.2;;;5.7;;
77748;SDS011;66938;52.084;5.228;2024-01-06T10:02:53;6.0;;;5.11;;
77748;SDS011;66938;52.084;5.228;2024-01-06T10:04:32;6.4;;;5.11;;
77748;SDS011;66938;52.084;5.228;2024-01-06T10:06:08;6.8;;;5.5;;
77748;SDS011;66938;52.084;5.228;2024-01-06T10:09:25;6.2;;;5.2;;
77748;SDS011;66938;52.084;5.228;2024-01-06T10:11:03;7.2;;;5.4;;
77748;SDS011;66938;52.084;5.228;2024-01-06T10:12:39;5.8;;;4.61;;
77748;SDS011;66938;52.084;5.228;2024-01-06T10:14:16;7.0;;;5.4;;
77748;SDS011;66938;52.084;5.228;2024-01-06T10:17:29;6.5;;;4.91;;
77748;SDS011;66938;52.084;5.228;2024-01-06T10:19:05;6.6;;;5.4;;
77748;SDS011;66938;52.084;5.228;2024-01-06T10:20:41;7.1;;;5.4;;
77748;SDS011;66938;52.084;5.228;2024-01-06T10:23:55;6.6;;;4.5;;
77748;SDS011;66938;52.084;5.228;2024-01-06T10:25:32;6.8;;;4.8;;
77748;SDS011;66938;52.084;5.228;2024-01-06T10:27:11;7.4;;;5.11;;
77748;SDS011;66938;52.084;5.228;2024-01-06T10:30:24;6.2;;;4.5;;
77748;SDS011;66938;52.084;5.228;2024-01-06T10:32:00;6.0;;;4.61;;
77748;SDS011;66938;52.084;5.228;2024-01-06T10:33:36;7.1;;;4.7;;
77748;SDS011;66938;52.084;5.228;2024-01-06T10:35:14;5.7;;;4.5;;
77748;SDS011;66938;52.084;5.228;2024-01-06T10:38:26;6.8;;;4.7;;
77748;SDS011;66938;52.084;5.228;2024-01-06T10:40:06;6.2;;;4.7;;
77748;SDS011;66938;52.084;5.228;2024-01-06T10:41:45;7.8;;;5.3;;
77748;SDS011;66938;52.084;5.228;2024-01-06T10:45:02;6.0;;;5.2;;
77748;SDS011;66938;52.084;5.228;2024-01-06T10:46:40;6.6;;;5.3;;
77748;SDS011;66938;52.084;5.228;2024-01-06T10:48:17;6.6;;;5.4;;
77748;SDS011;66938;52.084;5.228;2024-01-06T10:49:57;7.8;;;5.11;;
77748;SDS011;66938;52.084;5.228;2024-01-06T10:53:13;6.8;;;5.7;;
77748;SDS011;66938;52.084;5.228;2024-01-06T10:54:51;7.0;;;5.6;;
77748;SDS011;66938;52.084;5.228;2024-01-06T10:56:30;8.4;;;5.8;;
77748;SDS011;66938;52.084;5.228;2024-01-06T10:59:45;7.7;;;5.4;;
77748;SDS011;66938;52.084;5.228;2024-01-06T11:01:25;7.9;;;5.8;;
77748;SDS011;66938;52.084;5.228;2024-01-06T11:03:01;7.1;;;6.0;;
77748;SDS011;66938;52.084;5.228;2024-01-06T11:04:38;6.9;;;5.3;;
77748;SDS011;66938;52.084;5.228;2024-01-06T11:07:53;7.1;;;6.2;;
77748;SDS011;66938;52.084;5.228;2024-01-06T11:09:31;6.5;;;5.6;;
77748;SDS011;66938;52.084;5.228;2024-01-06T11:11:12;7.4;;;6.0;;
77748;SDS011;66938;52.084;5.228;2024-01-06T11:14:43;7.4;;;6.2;;
77748;SDS011;66938;52.084;5.228;2024-01-06T11:16:33;8.0;;;6.1;;
77748;SDS011;66938;52.084;5.228;2024-01-06T11:18:29;7.7;;;6.2;;
77748;SDS011;66938;52.084;5.228;2024-01-06T11:20:07;8.1;;;6.6;;
77748;SDS011;66938;52.084;5.228;2024-01-06T11:21:44;8.81;;;7.9;;
77748;SDS011;66938;52.084;5.228;2024-01-06T11:23:20;9.6;;;7.9;;
77748;SDS011;66938;52.084;5.228;2024-01-06T11:26:41;9.1;;;8.1;;
77748;SDS011;66938;52.084;5.228;2024-01-06T11:28:18;9.0;;;8.1;;
77748;SDS011;66938;52.084;5.228;2024-01-06T11:29:55;10.9;;;9.1;;
77748;SDS011;66938;52.084;5.228;2024-01-06T11:33:08;11.3;;;9.6;;
77748;SDS011;66938;52.084;5.228;2024-01-06T11:34:46;11.3;;;9.6;;
77748;SDS011;66938;52.084;5.228;2024-01-06T11:36:24;11.2;;;9.0;;
77748;SDS011;66938;52.084;5.228;2024-01-06T11:38:01;11.3;;;9.1;;
77748;SDS011;66938;52.084;5.228;2024-01-06T11:41:44;10.3;;;8.1;;
77748;SDS011;66938;52.084;5.228;2024-01-06T11:43:24;10.21;;;8.81;;
77748;SDS011;66938;52.084;5.228;2024-01-06T11:45:03;12.2;;;9.81;;
77748;SDS011;66938;52.084;5.228;2024-01-06T11:46:40;10.6;;;9.5;;
77748;SDS011;66938;52.084;5.228;2024-01-06T11:50:00;9.81;;;8.81;;
77748;SDS011;66938;52.084;5.228;2024-01-06T11:51:38;9.71;;;8.71;;
77748;SDS011;66938;52.084;5.228;2024-01-06T11:53:15;9.71;;;8.31;;
77748;SDS011;66938;52.084;5.228;2024-01-06T11:54:52;11.5;;;9.0;;
77748;SDS011;66938;52.084;5.228;2024-01-06T11:58:05;9.81;;;8.81;;
77748;SDS011;66938;52.084;5.228;2024-01-06T11:59:41;10.3;;;8.9;;
77748;SDS011;66938;52.084;5.228;2024-01-06T12:01:17;9.21;;;8.2;;
77748;SDS011;66938;52.084;5.228;2024-01-06T12:04:32;10.4;;;8.5;;
77748;SDS011;66938;52.084;5.228;2024-01-06T12:06:08;10.7;;;9.4;;
77748;SDS011;66938;52.084;5.228;2024-01-06T12:07:52;9.31;;;8.31;;
77748;SDS011;66938;52.084;5.228;2024-01-06T12:09:30;11.6;;;8.71;;
77748;SDS011;66938;52.084;5.228;2024-01-06T12:12:42;11.0;;;8.81;;
77748;SDS011;66938;52.084;5.228;2024-01-06T12:14:18;9.4;;;8.5;;
77748;SDS011;66938;52.084;5.228;2024-01-06T12:15:54;10.5;;;8.1;;
77748;SDS011;66938;52.084;5.228;2024-01-06T12:19:07;9.71;;;8.2;;
77748;SDS011;66938;52.084;5.228;2024-01-06T12:20:43;11.1;;;8.81;;
77748;SDS011;66938;52.084;5.228;2024-01-06T12:22:19;11.1;;;8.81;;
77748;SDS011;66938;52.084;5.228;2024-01-06T12:25:48;10.0;;;8.31;;
77748;SDS011;66938;52.084;5.228;2024-01-06T12:27:24;9.31;;;7.9;;
77748;SDS011;66938;52.084;5.228;2024-01-06T12:29:00;11.5;;;8.71;;
77748;SDS011;66938;52.084;5.228;2024-01-06T12:30:40;10.1;;;9.0;;
77748;SDS011;66938;52.084;5.228;2024-01-06T12:33:53;11.0;;;9.1;;
77748;SDS011;66938;52.084;5.228;2024-01-06T12:35:29;10.21;;;8.6;;
77748;SDS011;66938;52.084;5.228;2024-01-06T12:37:06;9.81;;;8.81;;
77748;SDS011;66938;52.084;5.228;2024-01-06T12:38:42;10.21;;;8.81;;
77748;SDS011;66938;52.084;5.228;2024-01-06T12:41:55;10.4;;;8.5;;
77748;SDS011;66938;52.084;5.228;2024-01-06T12:43:32;9.5;;;8.31;;
77748;SDS011;66938;52.084;5.228;2024-01-06T12:45:08;9.71;;;8.4;;
77748;SDS011;66938;52.084;5.228;2024-01-06T12:48:21;9.71;;;8.4;;
77748;SDS011;66938;52.084;5.228;2024-01-06T12:49:57;9.31;;;8.1;;
77748;SDS011;66938;52.084;5.228;2024-01-06T12:51:34;11.0;;;9.21;;